Time;durP1;ratioP1;P1;durP2;ratioP2;P2;SDS_P1;SDS_P2;PMS_P1;PMS_P2;Temp;Humidity;BMP_temperature;BMP_pressure;BME280_temperature;BME280_humidity;BME280_pressure;Samples;Min_cycle;Max_cycle;Signal;HPM_P1;HPM_P2
2022/11/18 00:01:46;;;;;;;7.10;3.45;;;;;;;-3.19;58.87;99293.06;6096588;23;20101;-79
2022/11/18 00:04:12;;;;;;;5.97;3.33;;;;;;;-3.25;58.77;99278.44;6071425;23;20357;-76
2022/11/18 00:06:38;;;;;;;5.57;3.05;;;;;;;-3.22;58.91;99277.69;6096611;23;20022;-77
2022/11/18 00:09:04;;;;;;;6.22;3.28;;;;;;;-3.50;57.80;99254.56;6071066;23;20018;-80
2022/11/18 00:14:26;;;;;;;5.85;3.13;;;;;;;-3.37;58.41;99281.38;6096901;23;20018;-79
2022/11/18 00:16:54;;;;;;;10.50;3.45;;;;;;;-3.39;59.11;99262.63;6070736;23;20025;-78
2022/11/18 00:19:24;;;;;;;5.07;3.08;;;;;;;-3.37;58.05;99267.78;6070833;23;20527;-79
2022/11/18 00:21:50;;;;;;;6.97;3.05;;;;;;;-3.30;58.98;99257.03;6072527;23;20022;-78
2022/11/18 00:24:16;;;;;;;6.00;3.13;;;;;;;-3.26;59.11;99263.13;6105965;23;20036;-78
2022/11/18 00:26:42;;;;;;;5.63;3.00;;;;;;;-3.49;59.02;99233.41;6077138;23;20022;-78
2022/11/18 00:29:10;;;;;;;6.53;3.30;;;;;;;-3.20;59.09;99263.34;6076489;23;20052;-78
2022/11/18 00:31:37;;;;;;;10.35;4.40;;;;;;;-3.24;58.52;99264.03;6099551;23;20049;-79
2022/11/18 00:34:04;;;;;;;6.40;3.17;;;;;;;-3.42;59.29;99234.50;6097691;23;20401;-79
2022/11/18 00:36:30;;;;;;;6.13;3.25;;;;;;;-3.27;59.01;99263.94;6072019;23;20018;-77
2022/11/18 00:38:56;;;;;;;6.28;3.22;;;;;;;-3.44;58.95;99235.28;6097450;23;20022;-76
2022/11/18 00:41:22;;;;;;;6.13;3.00;;;;;;;-3.42;59.21;99233.66;6098569;23;20024;-78
2022/11/18 00:43:48;;;;;;;7.90;3.13;;;;;;;-3.37;59.04;99227.06;6077501;23;20457;-79
2022/11/18 00:46:15;;;;;;;6.63;3.30;;;;;;;-3.43;57.96;99248.06;6104561;23;20033;-79
2022/11/18 00:48:41;;;;;;;6.95;3.60;;;;;;;-3.35;59.07;99250.91;6101401;23;20014;-78
2022/11/18 00:51:07;;;;;;;8.30;3.83;;;;;;;-3.38;59.40;99249.09;6076392;23;20057;-77
2022/11/18 00:53:33;;;;;;;8.50;3.65;;;;;;;-3.42;58.83;99241.28;6099922;23;20014;-76
2022/11/18 00:56:08;;;;;;;7.28;3.30;;;;;;;-3.37;59.24;99227.94;6052857;23;20114;-76
2022/11/18 00:58:36;;;;;;;7.47;3.45;;;;;;;-3.38;59.08;99210.94;6048163;23;20022;-76
2022/11/18 01:01:03;;;;;;;7.43;3.47;;;;;;;-3.53;58.51;99182.38;6024915;23;20072;-77
2022/11/18 01:03:30;;;;;;;8.07;3.50;;;;;;;-4.47;58.65;99047.44;6096528;23;20029;-80
2022/11/18 01:05:56;;;;;;;7.30;2.92;;;;;;;-4.00;57.89;99146.69;6073116;23;20025;-83
2022/11/18 01:08:23;;;;;;;5.22;3.20;;;;;;;-3.51;58.74;99218.91;6097445;23;20117;-76
2022/11/18 01:10:51;;;;;;;5.53;3.15;;;;;;;-3.49;58.96;99202.88;6071272;23;20022;-78
2022/11/18 01:13:19;;;;;;;6.13;3.58;;;;;;;-3.24;59.08;99226.72;6048805;23;20432;-77
2022/11/18 01:15:56;;;;;;;6.68;3.45;;;;;;;-3.20;59.11;99220.94;6071300;23;20464;-76
2022/11/18 01:18:30;;;;;;;6.45;3.40;;;;;;;-3.20;59.52;99220.09;6048338;23;20018;-78
2022/11/18 01:21:00;;;;;;;6.80;3.50;;;;;;;-3.20;59.13;99200.56;6096366;23;20029;-77
2022/11/18 01:23:26;;;;;;;7.25;3.30;;;;;;;-3.22;58.57;99207.28;6047497;23;20161;-78
2022/11/18 01:25:52;;;;;;;6.88;2.92;;;;;;;-3.40;59.16;99199.81;6047399;23;20022;-80
2022/11/18 01:28:19;;;;;;;7.53;3.25;;;;;;;-3.21;58.49;99210.72;6047294;23;20038;-78
2022/11/18 01:30:45;;;;;;;5.85;3.15;;;;;;;-3.21;58.81;99209.03;6071104;23;20046;-78
2022/11/18 01:33:12;;;;;;;6.13;3.05;;;;;;;-3.40;58.71;99176.91;6096818;23;20021;-80
2022/11/18 01:35:40;;;;;;;7.43;3.28;;;;;;;-3.27;58.63;99190.13;6071061;23;20025;-79
2022/11/18 01:38:07;;;;;;;6.63;2.95;;;;;;;-3.15;58.75;99202.44;6047247;23;20029;-76
2022/11/18 01:40:34;;;;;;;4.78;2.63;;;;;;;-3.19;58.45;99192.13;6072092;23;20029;-78
2022/11/18 01:43:01;;;;;;;8.68;3.17;;;;;;;-3.14;58.69;99210.09;6077087;23;20018;-79
2022/11/18 01:45:30;;;;;;;4.95;2.67;;;;;;;-3.11;58.76;99217.84;6071590;23;20368;-77
2022/11/18 01:48:21;;;;;;;4.38;2.90;;;;;;;-3.15;58.20;99221.09;6070913;23;20411;-78
2022/11/18 01:50:53;;;;;;;4.63;2.70;;;;;;;-3.15;58.25;99213.47;6070641;23;20034;-77
2022/11/18 01:53:23;;;;;;;5.03;2.90;;;;;;;-3.18;58.06;99216.78;6070688;23;20010;-76
2022/11/18 01:55:53;;;;;;;7.25;3.28;;;;;;;-3.10;58.24;99211.97;6096280;23;20018;-79
2022/11/18 01:58:53;;;;;;;6.57;3.20;;;;;;;-3.07;58.90;99217.16;6047360;23;20041;-77
2022/11/18 02:01:19;;;;;;;6.82;3.60;;;;;;;-3.23;58.97;99197.06;6047355;23;20045;-79
2022/11/18 02:03:47;;;;;;;6.10;3.50;;;;;;;-2.99;58.53;99220.00;6070316;23;20022;-79
2022/11/18 02:06:13;;;;;;;4.93;2.95;;;;;;;-3.35;57.66;99197.47;6094947;23;20341;-79
2022/11/18 02:08:40;;;;;;;6.35;3.17;;;;;;;-3.27;58.44;99197.75;6078697;23;20030;-78
2022/11/18 02:14:02;;;;;;;5.50;2.95;;;;;;;-2.96;58.78;99211.56;6098938;23;20018;-78
2022/11/18 02:16:38;;;;;;;5.20;2.83;;;;;;;-2.97;58.45;99197.13;6095670;23;20108;-76
2022/11/18 02:19:37;;;;;;;5.25;2.90;;;;;;;-2.96;58.36;99215.00;6046777;23;20024;-76
2022/11/18 02:22:24;;;;;;;7.18;3.38;;;;;;;-3.04;57.95;99206.22;6094418;23;20085;-79
2022/11/18 02:25:21;;;;;;;5.57;2.92;;;;;;;-3.20;58.01;99197.19;6071184;23;20513;-77
2022/11/18 02:28:05;;;;;;;4.85;2.70;;;;;;;-3.18;58.59;99198.97;6096261;23;20014;-77
2022/11/18 02:30:46;;;;;;;5.18;2.72;;;;;;;-3.15;58.41;99182.91;6046330;23;20445;-79
2022/11/18 02:33:20;;;;;;;6.30;3.20;;;;;;;-3.05;58.15;99200.28;6070473;23;20089;-79
2022/11/18 02:35:53;;;;;;;4.85;2.92;;;;;;;-2.96;58.48;99193.75;6095531;23;20078;-79
2022/11/18 02:38:33;;;;;;;5.28;2.78;;;;;;;-2.94;58.04;99187.94;6097866;23;20014;-77
2022/11/18 02:41:08;;;;;;;4.95;2.67;;;;;;;-2.98;57.34;99177.59;6076044;23;20373;-78
2022/11/18 02:43:52;;;;;;;5.65;2.78;;;;;;;-2.95;58.41;99196.38;6062783;23;20018;-77
2022/11/18 02:46:32;;;;;;;6.97;3.45;;;;;;;-3.04;57.92;99196.91;6070809;23;20018;-80
2022/11/18 02:49:01;;;;;;;7.32;2.92;;;;;;;-3.06;57.60;99196.00;6047149;23;20025;-79
2022/11/18 02:51:30;;;;;;;7.45;2.80;;;;;;;-3.01;58.32;99191.06;6096150;23;20101;-79
2022/11/18 02:54:05;;;;;;;8.07;3.65;;;;;;;-3.04;57.77;99185.84;6096141;23;20018;-77
2022/11/18 02:56:34;;;;;;;6.95;3.10;;;;;;;-2.97;58.08;99195.44;6076558;23;20018;-77
2022/11/18 02:59:01;;;;;;;5.00;2.63;;;;;;;-2.99;58.11;99179.25;6102385;23;20044;-80
2022/11/18 03:01:33;;;;;;;5.32;2.88;;;;;;;-2.97;57.95;99185.25;6076671;23;20026;-77
2022/11/18 03:03:59;;;;;;;5.38;3.33;;;;;;;-3.07;57.87;99168.78;6072345;23;20022;-78
2022/11/18 03:06:30;;;;;;;6.53;3.15;;;;;;;-3.00;57.97;99180.06;6095867;23;20045;-78
2022/11/18 03:09:17;;;;;;;6.45;3.45;;;;;;;-3.02;58.35;99171.50;6023148;23;20428;-79
2022/11/18 03:12:11;;;;;;;6.45;3.40;;;;;;;-3.00;57.79;99169.03;6074187;23;20101;-76
2022/11/18 03:14:43;;;;;;;5.10;2.78;;;;;;;-3.02;57.29;99179.13;6096081;23;20353;-77
2022/11/18 03:17:19;;;;;;;5.15;2.90;;;;;;;-3.14;57.70;99169.38;6095768;23;20314;-79
2022/11/18 03:20:15;;;;;;;6.38;3.22;;;;;;;-3.13;58.29;99168.56;6047742;23;20049;-78
2022/11/18 03:23:02;;;;;;;12.52;3.33;;;;;;;-3.17;58.32;99176.91;6096768;23;20019;-80
2022/11/18 03:25:36;;;;;;;5.32;3.00;;;;;;;-3.07;58.02;99173.88;6097846;23;20027;-78
2022/11/18 03:28:08;;;;;;;6.18;3.28;;;;;;;-3.11;57.85;99177.13;6072326;23;20036;-77
2022/11/18 03:30:40;;;;;;;6.43;3.20;;;;;;;-3.20;57.83;99166.63;6071969;23;20046;-77
2022/11/18 03:33:16;;;;;;;5.80;3.20;;;;;;;-3.20;58.18;99166.63;6070969;23;20015;-78
2022/11/18 03:35:46;;;;;;;6.88;3.58;;;;;;;-3.06;57.75;99175.63;6070515;23;20018;-79
2022/11/18 03:38:18;;;;;;;6.40;3.50;;;;;;;-2.94;58.21;99167.56;6070123;23;20041;-79
2022/11/18 03:40:51;;;;;;;5.72;3.25;;;;;;;-2.89;58.54;99176.22;6096375;23;20101;-78
2022/11/18 03:43:21;;;;;;;6.97;3.83;;;;;;;-3.03;57.46;99174.84;6046293;23;20074;-78
2022/11/18 03:45:55;;;;;;;5.80;3.45;;;;;;;-3.24;58.13;99136.78;6094278;23;20456;-77
2022/11/18 03:48:25;;;;;;;7.20;3.85;;;;;;;-3.06;58.26;99160.34;6095604;23;20026;-78
2022/11/18 03:50:57;;;;;;;6.60;3.75;;;;;;;-2.96;57.93;99169.19;6069804;23;20049;-78
2022/11/18 03:53:25;;;;;;;;;;;;;;;-2.99;58.41;99163.13;6070400;23;20037;-78
2022/11/18 03:55:57;;;;;;;7.68;4.10;;;;;;;-2.96;57.94;99168.28;6024265;23;19913;-78
2022/11/18 03:58:30;;;;;;;7.65;3.85;;;;;;;-2.98;58.13;99165.72;6047956;23;20029;-78
2022/11/18 04:01:04;;;;;;;7.00;3.60;;;;;;;-3.08;58.11;99156.00;6072129;23;20014;-79
2022/11/18 04:03:30;;;;;;;5.47;3.20;;;;;;;-3.25;57.86;99152.88;6096748;23;20077;-78
2022/11/18 04:06:08;;;;;;;7.00;3.80;;;;;;;-3.18;58.25;99150.59;6072703;23;20037;-77
2022/11/18 04:08:38;;;;;;;6.28;3.05;;;;;;;-3.24;57.94;99134.25;6071825;23;20025;-77
2022/11/18 04:12:01;;;;;;;7.20;3.47;;;;;;;-3.10;58.18;99150.00;6078477;23;20029;-78
2022/11/18 04:14:01;;;;;;;4.97;3.00;;;;;;;-3.21;57.98;99135.22;6071211;23;20041;-79
2022/11/18 04:16:28;;;;;;;7.32;3.50;;;;;;;-3.13;58.49;99145.66;6071812;23;20448;-78
2022/11/18 04:18:54;;;;;;;6.35;3.30;;;;;;;-3.12;58.25;99149.09;6097499;23;20018;-76
2022/11/18 04:21:21;;;;;;;8.35;3.28;;;;;;;-3.09;58.44;99162.78;6096914;23;20380;-78
2022/11/18 04:23:47;;;;;;;8.00;3.28;;;;;;;-3.10;58.26;99155.94;6098115;23;20038;-79
2022/11/18 04:26:13;;;;;;;6.18;3.50;;;;;;;-3.14;58.20;99143.94;6071943;23;20026;-78
2022/11/18 04:28:39;;;;;;;7.45;3.00;;;;;;;-3.04;57.89;99151.09;6048634;23;20022;-79
2022/11/18 04:31:05;;;;;;;8.48;3.75;;;;;;;-3.00;58.02;99144.41;6048496;23;20022;-78
2022/11/18 04:33:31;;;;;;;5.63;3.78;;;;;;;-2.88;58.23;99156.72;6071430;23;20018;-78
2022/11/18 04:35:57;;;;;;;9.98;3.50;;;;;;;-2.80;58.27;99160.41;6071657;23;20058;-78
2022/11/18 04:38:23;;;;;;;5.75;2.88;;;;;;;-3.03;58.18;99122.28;6096930;23;20018;-77
2022/11/18 04:40:49;;;;;;;6.00;3.15;;;;;;;-2.84;57.52;99158.56;6071767;23;20029;-79
2022/11/18 04:43:18;;;;;;;6.88;3.72;;;;;;;-2.85;57.92;99163.56;6051509;23;20018;-78
2022/11/18 04:45:45;;;;;;;5.78;3.30;;;;;;;-2.84;57.70;99150.03;6097997;23;20022;-78
2022/11/18 04:48:11;;;;;;;7.28;3.50;;;;;;;-2.88;57.37;99138.88;6049445;23;20019;-78
2022/11/18 04:50:40;;;;;;;6.80;3.78;;;;;;;-2.83;57.91;99145.00;6097547;23;20101;-79
2022/11/18 04:53:06;;;;;;;8.80;4.00;;;;;;;-3.01;57.87;99114.66;6047600;23;20097;-77
2022/11/18 04:55:34;;;;;;;5.82;3.42;;;;;;;-2.91;57.35;99147.28;6097146;23;20022;-77
2022/11/18 04:58:00;;;;;;;7.25;3.60;;;;;;;-2.80;58.12;99146.78;6097549;23;20120;-78
2022/11/18 05:00:26;;;;;;;8.27;3.30;;;;;;;-2.91;58.04;99132.00;6096925;23;20468;-80
2022/11/18 05:02:52;;;;;;;4.78;3.15;;;;;;;-2.87;58.58;99153.34;6097848;23;20369;-79
2022/11/18 05:05:18;;;;;;;7.28;3.80;;;;;;;-2.78;57.95;99158.78;6071880;23;20058;-79
2022/11/18 05:07:44;;;;;;;6.80;3.70;;;;;;;-2.68;58.13;99159.06;6073220;23;20512;-77
2022/11/18 05:10:10;;;;;;;4.95;3.13;;;;;;;-2.79;57.35;99144.31;6097916;23;20050;-79
2022/11/18 05:12:48;;;;;;;7.38;3.63;;;;;;;-2.78;58.12;99140.94;6096896;23;20041;-79
2022/11/18 05:15:16;;;;;;;6.57;3.58;;;;;;;-2.79;58.13;99138.31;6071716;23;20025;-80
2022/11/18 05:17:42;;;;;;;5.88;3.78;;;;;;;-2.84;57.57;99122.00;6096340;23;20050;-78
2022/11/18 05:20:09;;;;;;;7.47;3.72;;;;;;;-2.66;57.42;99154.91;6072079;23;20018;-77
2022/11/18 05:22:35;;;;;;;6.22;3.40;;;;;;;-2.62;57.69;99149.09;6096698;23;20026;-78
2022/11/18 05:25:02;;;;;;;5.80;3.42;;;;;;;-2.59;57.29;99155.16;6103954;23;20025;-77
2022/11/18 05:27:29;;;;;;;8.15;3.80;;;;;;;-2.68;57.30;99159.94;6049019;23;20072;-79
2022/11/18 05:29:55;;;;;;;6.20;3.33;;;;;;;-2.79;56.42;99161.25;6047653;23;20376;-78
2022/11/18 05:32:21;;;;;;;5.82;3.08;;;;;;;-2.75;57.77;99163.94;6072398;23;20479;-77
2022/11/18 05:34:47;;;;;;;7.63;3.63;;;;;;;-2.74;57.97;99165.69;6102466;23;20014;-78
2022/11/18 05:37:14;;;;;;;6.45;3.20;;;;;;;-2.95;57.58;99137.81;6049223;23;20045;-78
2022/11/18 05:39:41;;;;;;;6.10;3.47;;;;;;;-2.72;57.55;99169.16;6047295;23;20025;-78
2022/11/18 05:44:53;;;;;;;6.10;3.30;;;;;;;-2.76;57.79;99172.41;6096726;23;20073;-80
2022/11/18 05:47:19;;;;;;;7.38;3.95;;;;;;;-2.73;57.50;99176.75;6047177;23;20405;-80
2022/11/18 05:49:45;;;;;;;5.95;3.45;;;;;;;-2.73;56.98;99176.75;6071710;23;20026;-79
2022/11/18 05:52:11;;;;;;;7.28;3.90;;;;;;;-2.82;57.35;99172.22;6047326;23;20065;-79
2022/11/18 05:54:48;;;;;;;7.63;4.10;;;;;;;-2.83;57.33;99178.13;6072085;23;20097;-80
2022/11/18 05:57:15;;;;;;;7.43;4.05;;;;;;;-2.83;57.69;99172.13;6073234;23;20356;-79
2022/11/18 05:59:40;;;;;;;7.78;3.45;;;;;;;-2.85;57.53;99163.56;6072399;23;20476;-80
2022/11/18 06:02:14;;;;;;;6.78;3.60;;;;;;;-2.95;57.17;99139.47;6048355;23;20042;-81
2022/11/18 06:04:57;;;;;;;6.13;3.63;;;;;;;-3.10;57.26;99130.50;6097077;23;20535;-79
2022/11/18 06:07:32;;;;;;;6.95;3.42;;;;;;;-2.97;57.72;99141.97;6097355;23;20022;-78
2022/11/18 06:09:59;;;;;;;5.78;3.03;;;;;;;-3.07;57.74;99117.88;6097514;23;20025;-79
2022/11/18 06:12:30;;;;;;;7.13;3.58;;;;;;;-2.89;57.44;99132.94;6072282;23;20069;-78
2022/11/18 06:15:02;;;;;;;6.78;3.85;;;;;;;-2.58;58.10;99169.63;6049464;23;20072;-79
2022/11/18 06:17:43;;;;;;;8.48;3.70;;;;;;;-2.82;57.86;99144.19;6098478;23;20029;-78
2022/11/18 06:20:11;;;;;;;7.07;3.47;;;;;;;-2.65;57.58;99169.38;6073415;23;20042;-80
2022/11/18 06:22:37;;;;;;;8.00;3.78;;;;;;;-2.53;57.96;99168.91;6098180;23;20037;-78
2022/11/18 06:25:03;;;;;;;6.45;4.00;;;;;;;-2.64;57.76;99137.97;6073994;23;20018;-80
2022/11/18 06:27:30;;;;;;;5.80;3.55;;;;;;;-2.51;58.26;99150.31;6079019;23;20026;-80
2022/11/18 06:29:59;;;;;;;5.35;3.33;;;;;;;-2.46;57.77;99155.56;6058372;23;20025;-84
2022/11/18 06:32:25;;;;;;;6.47;3.50;;;;;;;-2.80;57.50;99099.28;6062965;23;20030;-83
2022/11/18 06:34:52;;;;;;;6.40;3.75;;;;;;;-2.79;57.35;99101.00;6084523;23;20141;-79
2022/11/18 06:37:22;;;;;;;6.53;3.95;;;;;;;-2.87;57.57;99087.13;6110392;23;20021;-80
2022/11/18 06:39:48;;;;;;;6.65;3.47;;;;;;;-3.38;57.92;99007.38;6076157;23;20018;-80
2022/11/18 06:45:15;;;;;;;6.63;3.47;;;;;;;-2.35;57.34;99164.44;6099497;23;20077;-81
2022/11/18 06:47:41;;;;;;;6.90;3.60;;;;;;;-2.24;57.83;99177.53;6077513;23;20105;-82
2022/11/18 06:50:08;;;;;;;6.43;3.80;;;;;;;-2.38;56.78;99143.09;6077610;23;20372;-80
2022/11/18 06:52:37;;;;;;;5.13;3.45;;;;;;;-3.07;57.22;99040.63;6052489;23;20018;-79
2022/11/18 06:55:07;;;;;;;9.32;3.85;;;;;;;-2.13;56.91;99173.66;6075917;23;20018;-79
2022/11/18 06:57:41;;;;;;;8.55;4.15;;;;;;;-2.50;56.92;99124.00;6074181;23;20109;-79
2022/11/18 07:00:07;;;;;;;6.45;3.70;;;;;;;-2.64;56.27;99105.72;6099728;23;20023;-81
2022/11/18 07:02:37;;;;;;;7.38;3.97;;;;;;;-2.40;57.71;99114.97;6073476;23;20018;-80
2022/11/18 07:05:05;;;;;;;6.68;4.13;;;;;;;-2.04;57.76;99151.78;6097721;23;20041;-81
2022/11/18 07:07:38;;;;;;;7.97;3.97;;;;;;;-1.85;57.73;99168.56;6061267;23;20083;-80
2022/11/18 07:10:09;;;;;;;6.72;3.95;;;;;;;-2.63;56.76;99055.66;6081201;23;20512;-78
2022/11/18 07:12:35;;;;;;;7.88;3.90;;;;;;;-2.06;57.32;99161.97;6074204;23;20461;-84
2022/11/18 07:15:01;;;;;;;7.78;4.78;;;;;;;-2.17;57.17;99140.34;6052044;23;20025;-81
2022/11/18 07:17:33;;;;;;;8.40;3.88;;;;;;;-2.49;57.05;99056.94;6078226;23;20018;-82
2022/11/18 07:20:11;;;;;;;8.70;4.18;;;;;;;-2.17;56.88;99114.84;6033933;23;20018;-80
2022/11/18 07:22:57;;;;;;;7.03;4.38;;;;;;;-1.79;56.93;99170.41;6055663;23;20026;-83
2022/11/18 07:25:23;;;;;;;6.30;3.80;;;;;;;-2.10;57.11;99126.97;6081496;23;20022;-79
2022/11/18 07:27:49;;;;;;;7.18;3.92;;;;;;;-2.18;56.92;99096.16;6053495;23;20018;-81
2022/11/18 07:30:17;;;;;;;8.88;4.32;;;;;;;-2.32;56.80;99082.13;6052934;23;20024;-81
2022/11/18 07:32:43;;;;;;;6.38;4.05;;;;;;;-2.27;56.54;99070.34;6108370;23;20018;-80
2022/11/18 07:35:12;;;;;;;6.43;3.80;;;;;;;-1.80;56.16;99145.72;6081382;23;20121;-80
2022/11/18 07:37:38;;;;;;;5.70;3.22;;;;;;;-1.69;56.66;99173.28;6032301;23;20014;-79
2022/11/18 07:40:05;;;;;;;7.25;4.40;;;;;;;-1.97;57.14;99111.22;6101726;23;20014;-80
2022/11/18 07:42:41;;;;;;;6.75;4.13;;;;;;;-1.89;56.68;99108.94;6077463;23;20025;-80
2022/11/18 07:45:22;;;;;;;7.28;4.07;;;;;;;-1.44;56.84;99168.06;6053420;23;20022;-80
2022/11/18 07:47:48;;;;;;;8.70;4.25;;;;;;;-1.48;56.73;99162.00;6085113;23;20456;-80
2022/11/18 07:50:17;;;;;;;6.28;3.80;;;;;;;-1.48;56.61;99163.69;6083111;23;20653;-81
2022/11/18 07:52:43;;;;;;;7.50;3.47;;;;;;;-1.53;56.41;99177.19;6110976;23;20038;-79
2022/11/18 07:55:09;;;;;;;6.43;3.97;;;;;;;-1.90;56.52;99124.19;6073554;23;20098;-79
2022/11/18 07:57:38;;;;;;;9.10;4.82;;;;;;;-1.65;56.11;99148.72;6051383;23;20094;-81
2022/11/18 08:00:08;;;;;;;7.47;3.88;;;;;;;-1.51;56.37;99177.22;6026736;23;20368;-79
2022/11/18 08:02:42;;;;;;;8.05;4.53;;;;;;;-1.70;56.42;99132.44;6051858;23;20528;-80
2022/11/18 08:05:09;;;;;;;7.25;3.90;;;;;;;-1.39;56.60;99182.69;6101715;23;20026;-80
2022/11/18 08:07:35;;;;;;;6.40;3.70;;;;;;;-2.09;56.51;99081.94;6077646;23;20048;-79
2022/11/18 08:10:04;;;;;;;7.03;4.20;;;;;;;-2.05;56.37;99097.41;6017849;23;20037;-82
2022/11/18 08:12:33;;;;;;;7.03;3.70;;;;;;;-2.43;56.36;99002.78;6036343;23;20022;-80
2022/11/18 08:15:09;;;;;;;6.40;3.92;;;;;;;-1.63;55.81;99148.78;6074376;23;20033;-81
2022/11/18 08:17:35;;;;;;;6.50;3.63;;;;;;;-1.47;55.84;99157.78;6053171;23;20022;-83
2022/11/18 08:20:02;;;;;;;7.97;3.92;;;;;;;-2.05;55.93;99050.63;6050977;23;20109;-81
2022/11/18 08:23:06;;;;;;;6.00;3.33;;;;;;;-1.17;56.56;99179.88;6078972;23;20022;-81
2022/11/18 08:25:34;;;;;;;6.68;4.25;;;;;;;-1.93;55.79;99063.75;6079294;23;20349;-85
2022/11/18 08:28:02;;;;;;;8.00;3.90;;;;;;;-2.03;56.08;99036.22;6078066;23;20046;-83
2022/11/18 08:30:32;;;;;;;8.60;4.15;;;;;;;-0.98;55.67;99177.00;6103842;23;20018;-81
2022/11/18 08:32:58;;;;;;;6.70;3.88;;;;;;;-1.25;55.25;99141.38;6078514;23;20014;-79
2022/11/18 08:35:27;;;;;;;8.27;3.95;;;;;;;-1.35;56.03;99127.47;6099384;23;20360;-79
2022/11/18 08:37:54;;;;;;;7.82;3.75;;;;;;;-2.06;55.64;99033.59;6107242;23;20444;-84
2022/11/18 08:44:25;;;;;;;7.38;3.58;;;;;;;-2.04;55.55;99050.69;6041065;23;20014;-90
2022/11/18 08:47:19;;;;;;;;;;;;;;;;;;;;;
2022/11/18 08:50:50;;;;;;;6.93;4.07;;;;;;;-2.60;55.26;98941.13;6000430;23;20032;-84
2022/11/18 08:59:24;;;;;;;;;;;;;;;;;;;;;
2022/11/18 09:09:08;;;;;;;;;;;;;;;;;;;;;
2022/11/18 09:23:23;;;;;;;;;;;;;;;;;;;;;
2022/11/18 09:32:00;;;;;;;;;;;;;;;;;;;;;
2022/11/18 09:44:34;;;;;;;;;;;;;;;;;;;;;
2022/11/18 09:53:42;;;;;;;;;;;;;;;;;;;;;
2022/11/18 10:11:58;;;;;;;5.97;3.95;;;;;;;-0.95;55.46;99230.75;6049231;23;20490;-88
2022/11/18 10:16:03;;;;;;;7.15;4.03;;;;;;;-1.03;55.17;99224.56;5969393;23;20078;-90
2022/11/18 10:19:47;;;;;;;6.47;3.97;;;;;;;-1.09;54.21;99226.94;6079785;23;20033;-88
2022/11/18 10:40:51;;;;;;;7.95;3.78;;;;;;;-0.81;55.46;99226.03;6239344;23;20033;-82
2022/11/18 10:43:44;;;;;;;6.68;3.78;;;;;;;-0.80;54.70;99230.31;6168027;23;20016;-82
2022/11/18 10:46:27;;;;;;;6.90;3.85;;;;;;;-0.78;55.21;99245.72;6171751;23;20012;-84
2022/11/18 10:49:08;;;;;;;7.45;3.95;;;;;;;-0.78;55.00;99233.78;6195441;23;20016;-85
2022/11/18 10:52:09;;;;;;;7.78;4.20;;;;;;;-1.31;55.41;99144.63;6196728;23;19996;-85
2022/11/18 10:54:35;;;;;;;8.35;4.00;;;;;;;-1.84;55.15;99061.44;6221491;23;20020;-86
2022/11/18 10:57:18;;;;;;;5.28;3.30;;;;;;;-0.68;55.75;99234.91;6197959;23;20019;-84
2022/11/18 10:59:51;;;;;;;5.70;3.55;;;;;;;-0.65;55.77;99237.56;6214410;23;20020;-86
2022/11/18 11:02:40;;;;;;;6.50;3.78;;;;;;;-0.62;55.35;99245.31;6216161;23;20485;-85
2022/11/18 11:05:20;;;;;;;6.25;4.22;;;;;;;-0.78;55.83;99209.94;6190335;23;20016;-83
2022/11/18 11:08:02;;;;;;;6.55;4.07;;;;;;;-2.07;55.17;98996.16;6179380;23;20143;-86
2022/11/18 11:10:28;;;;;;;5.60;3.60;;;;;;;-0.83;55.46;99201.28;6173595;23;20017;-85
2022/11/18 11:13:11;;;;;;;6.85;3.55;;;;;;;-1.48;55.09;99098.19;6174415;23;20462;-85
2022/11/18 11:15:47;;;;;;;5.72;3.50;;;;;;;-0.66;54.92;99251.16;6173719;23;20068;-89
2022/11/18 11:21:16;;;;;;;5.88;3.40;;;;;;;-1.37;55.33;99155.53;6177229;23;20401;-85
2022/11/18 11:23:44;;;;;;;6.22;3.58;;;;;;;-2.09;55.60;99059.88;6182925;23;20076;-86
2022/11/18 11:26:36;;;;;;;6.18;3.55;;;;;;;-0.80;55.22;99301.00;6181066;23;20020;-86
2022/11/18 11:29:30;;;;;;;4.90;3.40;;;;;;;-1.89;55.82;99092.75;6179923;23;20023;-86
2022/11/18 11:32:14;;;;;;;6.35;3.67;;;;;;;-0.80;56.34;99276.31;6186385;23;20072;-82
2022/11/18 11:35:16;;;;;;;6.40;3.53;;;;;;;-1.38;56.09;99173.34;6217623;23;20042;-82
2022/11/18 11:38:00;;;;;;;7.03;3.90;;;;;;;-0.78;55.63;99273.81;6147920;23;20021;-85
2022/11/18 11:40:49;;;;;;;6.82;3.50;;;;;;;-0.69;55.71;99286.84;6172875;23;20093;-85
2022/11/18 11:43:41;;;;;;;6.65;4.13;;;;;;;-0.74;55.86;99278.16;6179123;23;20459;-88
2022/11/18 11:46:27;;;;;;;6.10;4.00;;;;;;;-0.73;55.97;99279.91;6172590;23;20017;-86
2022/11/18 11:49:15;;;;;;;6.97;3.72;;;;;;;-0.77;55.40;99284.06;6163616;23;20028;-87
2022/11/18 11:51:53;;;;;;;8.93;3.85;;;;;;;-1.27;56.29;99194.97;6161983;23;20037;-85
2022/11/18 11:54:26;;;;;;;7.20;4.38;;;;;;;-0.70;55.65;99279.16;6163897;23;20067;-83
2022/11/18 11:56:58;;;;;;;7.78;3.80;;;;;;;-0.70;55.25;99282.56;6163072;23;20102;-84
2022/11/18 11:59:49;;;;;;;7.80;4.13;;;;;;;-1.45;55.69;99156.13;6136644;23;20017;-85
2022/11/18 12:02:46;;;;;;;5.90;4.07;;;;;;;-0.70;56.56;99287.66;6164869;23;20340;-84
2022/11/18 12:05:35;;;;;;;7.78;3.78;;;;;;;-0.83;55.86;99280.47;6161562;23;20029;-83
2022/11/18 12:08:15;;;;;;;7.65;4.35;;;;;;;-0.72;55.83;99299.53;6161916;23;20021;-85
2022/11/18 12:10:56;;;;;;;7.32;4.28;;;;;;;-1.35;56.16;99186.19;6184560;23;20025;-86
2022/11/18 12:13:41;;;;;;;6.20;4.35;;;;;;;-1.06;56.07;99255.97;6135519;23;20025;-83
2022/11/18 12:16:26;;;;;;;8.90;4.25;;;;;;;-0.80;56.12;99312.09;6159402;23;20108;-83
2022/11/18 12:19:01;;;;;;;9.48;4.50;;;;;;;-0.76;56.82;99305.38;6157705;23;20049;-86
2022/11/18 12:21:57;;;;;;;7.57;4.03;;;;;;;-0.79;56.79;99318.06;6157789;23;20026;-84
2022/11/18 12:24:31;;;;;;;8.45;4.63;;;;;;;-0.82;56.13;99323.09;6134304;23;20367;-83
2022/11/18 12:27:23;;;;;;;9.20;5.03;;;;;;;-0.91;56.08;99313.47;6186058;23;20044;-84
2022/11/18 12:29:53;;;;;;;11.10;5.18;;;;;;;-0.79;57.05;99328.31;6143745;23;20426;-82
2022/11/18 12:32:30;;;;;;;11.82;5.47;;;;;;;-0.87;56.79;99332.31;6158315;23;20021;-82
2022/11/18 12:35:02;;;;;;;9.40;5.40;;;;;;;-0.85;56.05;99349.41;6157716;23;20013;-85
2022/11/18 12:37:29;;;;;;;11.75;6.00;;;;;;;-0.88;56.10;99333.13;6159900;23;20022;-82
2022/11/18 12:39:57;;;;;;;7.75;4.45;;;;;;;-0.97;55.51;99338.81;6141349;23;20060;-79
2022/11/18 12:45:39;;;;;;;7.13;4.65;;;;;;;-0.88;56.92;99349.31;6164751;23;20021;-82
2022/11/18 12:48:28;;;;;;;7.88;4.35;;;;;;;-0.80;57.24;99352.13;6169119;23;20017;-81
2022/11/18 12:50:55;;;;;;;7.55;4.80;;;;;;;-0.85;56.39;99348.56;6174962;23;20052;-81
2022/11/18 12:53:46;;;;;;;8.95;4.75;;;;;;;-0.91;56.60;99344.97;6164657;23;20017;-82
2022/11/18 12:56:35;;;;;;;9.80;4.90;;;;;;;-1.26;56.92;99291.16;6173402;23;20004;-84
2022/11/18 12:59:04;;;;;;;;;;;;;;;-0.83;57.37;99360.53;6175264;23;20013;-85
2022/11/18 13:01:37;;;;;;;11.65;4.97;;;;;;;-1.44;56.94;99268.47;6166214;23;19912;-84
2022/11/18 13:04:13;;;;;;;8.43;4.70;;;;;;;-0.94;56.60;99364.47;6189471;23;20020;-82
2022/11/18 13:06:40;;;;;;;8.68;5.03;;;;;;;-0.84;56.13;99371.56;6165952;23;20027;-84
2022/11/18 13:09:17;;;;;;;12.13;5.07;;;;;;;-1.23;56.44;99321.91;6170366;23;20039;-83
2022/11/18 13:11:54;;;;;;;10.68;5.57;;;;;;;-1.02;56.60;99351.47;6148479;23;20032;-83
2022/11/18 13:20:31;;;;;;;10.90;5.30;;;;;;;-1.04;57.08;99378.66;6196596;23;20013;-82
2022/11/18 13:26:18;;;;;;;9.57;6.28;;;;;;;-0.97;57.08;99378.00;6195741;23;20017;-86
2022/11/18 13:29:03;;;;;;;10.68;6.45;;;;;;;-0.89;57.50;99390.16;6148211;23;20013;-83
2022/11/18 13:31:55;;;;;;;10.80;5.57;;;;;;;-0.85;56.73;99399.66;6194890;23;20020;-84
2022/11/18 13:34:28;;;;;;;8.05;5.00;;;;;;;-0.80;57.79;99403.22;6177592;23;20024;-86
2022/11/18 13:36:59;;;;;;;8.00;4.88;;;;;;;-0.97;56.73;99372.03;6180032;23;20016;-85
2022/11/18 13:39:31;;;;;;;12.23;4.70;;;;;;;-1.08;57.76;99381.91;6181311;23;20020;-85
2022/11/18 13:42:02;;;;;;;9.88;4.80;;;;;;;-0.82;56.85;99404.84;6177123;23;20463;-83
2022/11/18 13:44:31;;;;;;;8.10;4.60;;;;;;;-1.68;57.49;99260.94;6150279;23;20017;-82
2022/11/18 13:47:03;;;;;;;7.88;5.13;;;;;;;-2.17;57.16;99212.59;6175904;23;20016;-82
2022/11/18 13:50:03;;;;;;;11.48;4.97;;;;;;;-1.58;57.04;99343.75;6179633;23;20036;-84
2022/11/18 13:53:04;;;;;;;9.07;4.82;;;;;;;-1.23;57.21;99408.72;6153888;23;20052;-83
2022/11/18 13:55:39;;;;;;;9.27;4.78;;;;;;;-1.22;57.70;99409.56;6197007;23;20016;-83
2022/11/18 13:58:19;;;;;;;9.23;5.30;;;;;;;-1.63;57.42;99332.50;6199070;23;20017;-82
2022/11/18 14:01:30;;;;;;;11.07;5.35;;;;;;;-1.23;57.88;99407.84;6197009;23;20067;-82
2022/11/18 14:03:59;;;;;;;12.02;4.78;;;;;;;-1.51;57.79;99366.06;6152684;23;20073;-83
2022/11/18 14:06:29;;;;;;;9.95;5.40;;;;;;;-1.42;57.28;99375.72;6183648;23;20017;-80